Mantachie, Mississippi
Current Conditions -  °F | °C
As of 12:53 PM on Tuesday 21 Oct 2014 (Local Time) from KTUP Reporting Station
Clear Clear  
Wind Chill: 75°   Ceiling: Unl
Heat Index: 75°   Visibility: 10mi
Dew Point: 52°   Wind: 8mph
Humidity: 44%   Direction: 40°NE
Pressure: 30.06"   Gusts: NA
Location:  34.32°N, 88.49°W
Report Text: KTUP 211753Z 04007KT 10SM CLR 24/11 A3006 RMK AO2 SLP175 T02390111 10239 20094 58010 $
Loading
Personal Weather Stations






























Interactive Weather Map
Tropical Storm Tracking
New forecast layout! Learn more

10-Day Weather Forecast

Advertisements
Track Severe Weather on mobile